Station Historical Data
Daily Summary for January 18, 2017 Units:  Both    English   Metric
« Previous Day
Next Day »
Daily Weekly Monthly Yearly Custom
  High: Low: Average:
Temperature: 68.7 °F /  20.4 °C 54.0 °F /  12.2 °C 61.5 °F /  16.4 °C
Dew Point: 56.8 °F /  13.8 °C 49.3 °F /  9.6 °C 52.6 °F /  11.4 °C
Humidity: 89% 52% 73%
Wind Speed: 10.4mph /  16.7km/h - 8.7mph /  14km/h
Wind Gust: 10.4mph /  16.7km/h - -
Wind- - SE
Pressure: 30.18 in /  1021.9 hPa 30.08 in /  1018.5 hPa -
Precipitation: 0.00 in /  0 mm    
Historical Graphs
 
 
Tabular Data for January 18, 2017
Time Temperature Dew Point Pressure Wind Wind Speed Wind Gust Humidity Rainfall Rate (Hourly) solar Conditions
00:00 63.0 °F /  17.2 °C 56.7 °F /  13.7 °C 30.13in /  1020.2hPa ENE 10.4mph /  16.7km/h   80% 0.00in /  0mm 0.0 W/m2
00:05 62.8 °F /  17.1 °C 56.5 °F /  13.6 °C 30.13in /  1020.2hPa NW 10.4mph /  16.7km/h 10.4mph /  16.7km/h 80% 0.00in /  0mm 0.0 W/m2
00:10 62.6 °F /  17 °C 56.7 °F /  13.7 °C 30.13in /  1020.2hPa NW 10.4mph /  16.7km/h   81% 0.00in /  0mm 0.0 W/m2
00:15 62.4 °F /  16.9 °C 56.5 °F /  13.6 °C 30.13in /  1020.2hPa NW 10.4mph /  16.7km/h   81% 0.00in /  0mm 0.0 W/m2
00:20 62.4 °F /  16.9 °C 56.8 °F /  13.8 °C 30.12in /  1019.9hPa NNW 10.4mph /  16.7km/h   82% 0.00in /  0mm 0.0 W/m2
00:25 62.4 °F /  16.9 °C 56.8 °F /  13.8 °C 30.13in /  1020.2hPa NNW 10.4mph /  16.7km/h   82% 0.00in /  0mm 0.0 W/m2
00:30 62.2 °F /  16.8 °C 56.3 °F /  13.5 °C 30.13in /  1020.2hPa NNW 10.4mph /  16.7km/h   81% 0.00in /  0mm 0.0 W/m2
00:36 61.9 °F /  16.6 °C 56.3 °F /  13.5 °C 30.13in /  1020.2hPa NNW 10.4mph /  16.7km/h   82% 0.00in /  0mm 0.0 W/m2
00:41 61.7 °F /  16.5 °C 56.5 °F /  13.6 °C 30.12in /  1019.9hPa NNW 10.4mph /  16.7km/h   83% 0.00in /  0mm 0.0 W/m2
00:46 61.5 °F /  16.4 °C 56.3 °F /  13.5 °C 30.12in /  1019.9hPa NNW 10.4mph /  16.7km/h   83% 0.00in /  0mm 0.0 W/m2
00:51 61.4 °F /  16.3 °C 56.2 °F /  13.4 °C 30.12in /  1019.9hPa NNW 10.4mph /  16.7km/h   83% 0.00in /  0mm 0.0 W/m2
00:56 61.2 °F /  16.2 °C 56.3 °F /  13.5 °C 30.12in /  1019.9hPa NNW 10.4mph /  16.7km/h   84% 0.00in /  0mm 0.0 W/m2
01:01 61.0 °F /  16.1 °C 56.1 °F /  13.4 °C 30.12in /  1019.9hPa NNW 10.4mph /  16.7km/h   84% 0.00in /  0mm 0.0 W/m2
01:06 61.0 °F /  16.1 °C 56.1 °F /  13.4 °C 30.12in /  1019.9hPa NNW 10.4mph /  16.7km/h   84% 0.00in /  0mm 0.0 W/m2
01:11 60.9 °F /  16.1 °C 56.0 °F /  13.3 °C 30.12in /  1019.9hPa NNW 10.4mph /  16.7km/h   84% 0.00in /  0mm 0.0 W/m2
01:16 60.9 °F /  16.1 °C 56.0 °F /  13.3 °C 30.12in /  1019.9hPa NNW 10.4mph /  16.7km/h   84% 0.00in /  0mm 0.0 W/m2
01:21 60.9 °F /  16.1 °C 56.4 °F /  13.6 °C 30.11in /  1019.5hPa NNE 10.4mph /  16.7km/h 10.4mph /  16.7km/h 85% 0.00in /  0mm 0.0 W/m2
01:26 60.9 °F /  16.1 °C 56.4 °F /  13.6 °C 30.11in /  1019.5hPa NNE 10.4mph /  16.7km/h   85% 0.00in /  0mm 0.0 W/m2
01:31 61.1 °F /  16.2 °C 56.6 °F /  13.7 °C 30.11in /  1019.5hPa NNE 10.4mph /  16.7km/h   85% 0.00in /  0mm 0.0 W/m2
01:36 61.3 °F /  16.3 °C 56.8 °F /  13.8 °C 30.11in /  1019.5hPa NNE 10.4mph /  16.7km/h   85% 0.00in /  0mm 0.0 W/m2
01:41 60.4 °F /  15.8 °C 55.5 °F /  13.1 °C 30.11in /  1019.5hPa NNE 10.4mph /  16.7km/h   84% 0.00in /  0mm 0.0 W/m2
01:46 60.4 °F /  15.8 °C 55.5 °F /  13.1 °C 30.11in /  1019.5hPa NNE 10.4mph /  16.7km/h   84% 0.00in /  0mm 0.0 W/m2
01:51 60.4 °F /  15.8 °C 55.5 °F /  13.1 °C 30.11in /  1019.5hPa North 10.4mph /  16.7km/h   84% 0.00in /  0mm 0.0 W/m2
01:56 60.4 °F /  15.8 °C 55.5 °F /  13.1 °C 30.11in /  1019.5hPa North 10.4mph /  16.7km/h   84% 0.00in /  0mm 0.0 W/m2
02:01 60.4 °F /  15.8 °C 55.5 °F /  13.1 °C 30.11in /  1019.5hPa North 10.4mph /  16.7km/h   84% 0.00in /  0mm 0.0 W/m2
02:06 60.4 °F /  15.8 °C 55.5 °F /  13.1 °C 30.11in /  1019.5hPa North 10.4mph /  16.7km/h   84% 0.00in /  0mm 0.0 W/m2
02:12 60.4 °F /  15.8 °C 55.5 °F /  13.1 °C 30.12in /  1019.9hPa North 10.4mph /  16.7km/h   84% 0.00in /  0mm 0.0 W/m2
02:17 60.4 °F /  15.8 °C 55.5 °F /  13.1 °C 30.12in /  1019.9hPa North 10.4mph /  16.7km/h   84% 0.00in /  0mm 0.0 W/m2
02:22 60.4 °F /  15.8 °C 55.5 °F /  13.1 °C 30.12in /  1019.9hPa North 10.4mph /  16.7km/h   84% 0.00in /  0mm 0.0 W/m2
02:27 60.4 °F /  15.8 °C 55.5 °F /  13.1 °C 30.12in /  1019.9hPa North 10.4mph /  16.7km/h   84% 0.00in /  0mm 0.0 W/m2
02:32 60.4 °F /  15.8 °C 55.5 °F /  13.1 °C 30.11in /  1019.5hPa North 10.4mph /  16.7km/h   84% 0.00in /  0mm 0.0 W/m2
02:37 60.4 °F /  15.8 °C 55.5 °F /  13.1 °C 30.11in /  1019.5hPa North 10.4mph /  16.7km/h   84% 0.00in /  0mm 0.0 W/m2
02:42 60.4 °F /  15.8 °C 55.5 °F /  13.1 °C 30.12in /  1019.9hPa North 10.4mph /  16.7km/h   84% 0.00in /  0mm 0.0 W/m2
02:47 60.4 °F /  15.8 °C 55.5 °F /  13.1 °C 30.11in /  1019.5hPa North 10.4mph /  16.7km/h   84% 0.00in /  0mm 0.0 W/m2
02:52 60.4 °F /  15.8 °C 55.5 °F /  13.1 °C 30.11in /  1019.5hPa North 10.4mph /  16.7km/h   84% 0.00in /  0mm 0.0 W/m2
02:57 60.4 °F /  15.8 °C 55.5 °F /  13.1 °C 30.11in /  1019.5hPa North 10.4mph /  16.7km/h   84% 0.00in /  0mm 0.0 W/m2
03:02 60.4 °F /  15.8 °C 55.5 °F /  13.1 °C 30.11in /  1019.5hPa North 10.4mph /  16.7km/h   84% 0.00in /  0mm 0.0 W/m2
03:07 60.4 °F /  15.8 °C 55.5 °F /  13.1 °C 30.11in /  1019.5hPa North 10.4mph /  16.7km/h   84% 0.00in /  0mm 0.0 W/m2
03:12 60.4 °F /  15.8 °C 55.5 °F /  13.1 °C 30.10in /  1019.2hPa North 10.4mph /  16.7km/h   84% 0.00in /  0mm 0.0 W/m2
03:18 60.4 °F /  15.8 °C 55.5 °F /  13.1 °C 30.10in /  1019.2hPa North 10.4mph /  16.7km/h   84% 0.00in /  0mm 0.0 W/m2
08:30 60.4 °F /  15.8 °C 55.5 °F /  13.1 °C 30.15in /  1020.9hPa Calm     84% 0.00in /  0mm 0.0 W/m2 CLR
08:36 60.4 °F /  15.8 °C 55.5 °F /  13.1 °C 30.15in /  1020.9hPa North 2.3mph /  3.7km/h   84% 0.00in /  0mm 0.0 W/m2 CLR
08:41 60.4 °F /  15.8 °C 55.5 °F /  13.1 °C 30.16in /  1021.2hPa North 2.3mph /  3.7km/h   84% 0.00in /  0mm 0.0 W/m2 CLR
08:46 60.4 °F /  15.8 °C 55.5 °F /  13.1 °C 30.16in /  1021.2hPa North 2.3mph /  3.7km/h   84% 0.00in /  0mm 0.0 W/m2 CLR
08:51 60.4 °F /  15.8 °C 55.5 °F /  13.1 °C 30.16in /  1021.2hPa North 2.3mph /  3.7km/h   84% 0.00in /  0mm 0.0 W/m2 CLR
08:56 60.4 °F /  15.8 °C 55.5 °F /  13.1 °C 30.16in /  1021.2hPa North 2.3mph /  3.7km/h   84% 0.00in /  0mm 0.0 W/m2 CLR
09:01 60.4 °F /  15.8 °C 55.5 °F /  13.1 °C 30.16in /  1021.2hPa North 2.3mph /  3.7km/h   84% 0.00in /  0mm 0.0 W/m2 OVC
09:06 60.4 °F /  15.8 °C 55.5 °F /  13.1 °C 30.16in /  1021.2hPa North 2.3mph /  3.7km/h   84% 0.00in /  0mm 0.0 W/m2 OVC
09:11 60.4 °F /  15.8 °C 55.5 °F /  13.1 °C 30.16in /  1021.2hPa North 2.3mph /  3.7km/h   84% 0.00in /  0mm 0.0 W/m2 OVC
09:16 60.4 °F /  15.8 °C 55.5 °F /  13.1 °C 30.16in /  1021.2hPa North 2.3mph /  3.7km/h   84% 0.00in /  0mm 0.0 W/m2 OVC
09:21 60.4 °F /  15.8 °C 55.5 °F /  13.1 °C 30.16in /  1021.2hPa North 2.3mph /  3.7km/h   84% 0.00in /  0mm 0.0 W/m2 OVC
09:26 60.4 °F /  15.8 °C 55.5 °F /  13.1 °C 30.17in /  1021.6hPa North 2.3mph /  3.7km/h   84% 0.00in /  0mm 0.0 W/m2 OVC
09:31 60.4 °F /  15.8 °C 55.5 °F /  13.1 °C 30.17in /  1021.6hPa North 2.3mph /  3.7km/h   84% 0.00in /  0mm 0.0 W/m2 OVC
09:36 60.4 °F /  15.8 °C 55.5 °F /  13.1 °C 30.17in /  1021.6hPa North 2.3mph /  3.7km/h   84% 0.00in /  0mm 0.0 W/m2 OVC
09:41 60.4 °F /  15.8 °C 55.5 °F /  13.1 °C 30.17in /  1021.6hPa North 2.3mph /  3.7km/h   84% 0.00in /  0mm 0.0 W/m2 OVC
09:46 60.4 °F /  15.8 °C 55.5 °F /  13.1 °C 30.17in /  1021.6hPa North 2.3mph /  3.7km/h   84% 0.00in /  0mm 0.0 W/m2 OVC
09:51 60.4 °F /  15.8 °C 55.5 °F /  13.1 °C 30.18in /  1021.9hPa North 2.3mph /  3.7km/h   84% 0.00in /  0mm 0.0 W/m2 OVC
09:57 60.4 °F /  15.8 °C 55.5 °F /  13.1 °C 30.18in /  1021.9hPa North 2.3mph /  3.7km/h   84% 0.00in /  0mm 0.0 W/m2 OVC
10:02 59.3 °F /  15.2 °C 56.1 °F /  13.4 °C 30.18in /  1021.9hPa WSW 2.3mph /  3.7km/h 2.3mph /  3.7km/h 89% 0.00in /  0mm 0.0 W/m2 OVC
10:07 59.5 °F /  15.3 °C 55.9 °F /  13.3 °C 30.18in /  1021.9hPa West 3.5mph /  5.6km/h 3.5mph /  5.6km/h 88% 0.00in /  0mm 0.0 W/m2 OVC
10:12 59.6 °F /  15.3 °C 55.7 °F /  13.2 °C 30.18in /  1021.9hPa East 5.1mph /  8.2km/h 5.1mph /  8.2km/h 87% 0.00in /  0mm 0.0 W/m2 OVC
10:17 60.1 °F /  15.6 °C 56.5 °F /  13.6 °C 30.18in /  1021.9hPa NW 5.1mph /  8.2km/h   88% 0.00in /  0mm 0.0 W/m2 OVC
10:22 60.7 °F /  15.9 °C 56.2 °F /  13.4 °C 30.17in /  1021.6hPa West 5.1mph /  8.2km/h 5.1mph /  8.2km/h 85% 0.00in /  0mm 0.0 W/m2 OVC
10:28 61.3 °F /  16.3 °C 55.8 °F /  13.2 °C 30.17in /  1021.6hPa South 6.1mph /  9.8km/h 6.1mph /  9.8km/h 82% 0.00in /  0mm 0.0 W/m2 OVC
10:33 61.7 °F /  16.5 °C 55.8 °F /  13.2 °C 30.18in /  1021.9hPa SSW 6.1mph /  9.8km/h 6.1mph /  9.8km/h 81% 0.00in /  0mm 0.0 W/m2 OVC
10:38 62.0 °F /  16.7 °C 55.1 °F /  12.8 °C 30.18in /  1021.9hPa ESE 9.2mph /  14.8km/h 9.2mph /  14.8km/h 78% 0.00in /  0mm 0.0 W/m2 OVC
10:43 62.2 °F /  16.8 °C 55.6 °F /  13.1 °C 30.17in /  1021.6hPa WNW 9.2mph /  14.8km/h 9.2mph /  14.8km/h 79% 0.00in /  0mm 0.0 W/m2 OVC
10:48 62.7 °F /  17.1 °C 55.4 °F /  13 °C 30.17in /  1021.6hPa WNW 9.2mph /  14.8km/h 9.2mph /  14.8km/h 77% 0.00in /  0mm 0.0 W/m2 OVC
10:53 62.6 °F /  17 °C 54.9 °F /  12.7 °C 30.17in /  1021.6hPa SE 9.2mph /  14.8km/h 9.2mph /  14.8km/h 76% 0.00in /  0mm 0.0 W/m2 OVC
11:00 62.6 °F /  17 °C 54.9 °F /  12.7 °C 30.17in /  1021.6hPa West 9.2mph /  14.8km/h   76% 0.00in /  0mm 0.0 W/m2 OVC
11:05 62.6 °F /  17 °C 55.3 °F /  12.9 °C 30.17in /  1021.6hPa SW 9.2mph /  14.8km/h 9.2mph /  14.8km/h 77% 0.00in /  0mm 0.0 W/m2 OVC
11:10 62.6 °F /  17 °C 54.9 °F /  12.7 °C 30.17in /  1021.6hPa ESE 9.2mph /  14.8km/h 9.2mph /  14.8km/h 76% 0.00in /  0mm 0.0 W/m2 OVC
11:15 62.6 °F /  17 °C 55.3 °F /  12.9 °C 30.17in /  1021.6hPa WNW 9.2mph /  14.8km/h 9.2mph /  14.8km/h 77% 0.00in /  0mm 0.0 W/m2 OVC
11:20 62.8 °F /  17.1 °C 54.8 °F /  12.7 °C 30.17in /  1021.6hPa East 9.2mph /  14.8km/h 9.2mph /  14.8km/h 75% 0.00in /  0mm 0.0 W/m2 OVC
11:25 63.2 °F /  17.3 °C 54.8 °F /  12.7 °C 30.17in /  1021.6hPa North 9.2mph /  14.8km/h 9.2mph /  14.8km/h 74% 0.00in /  0mm 0.0 W/m2 OVC
11:30 63.6 °F /  17.6 °C 54.4 °F /  12.4 °C 30.16in /  1021.2hPa West 9.2mph /  14.8km/h   72% 0.00in /  0mm 0.0 W/m2 OVC
11:35 63.8 °F /  17.7 °C 54.2 °F /  12.3 °C 30.16in /  1021.2hPa NW 9.2mph /  14.8km/h   71% 0.00in /  0mm 0.0 W/m2 OVC
11:40 63.7 °F /  17.6 °C 53.7 °F /  12.1 °C 30.17in /  1021.6hPa NNE 9.2mph /  14.8km/h 9.2mph /  14.8km/h 70% 0.00in /  0mm 0.0 W/m2 OVC
11:45 63.7 °F /  17.6 °C 53.7 °F /  12.1 °C 30.16in /  1021.2hPa SSE 9.2mph /  14.8km/h 9.2mph /  14.8km/h 70% 0.00in /  0mm 0.0 W/m2 OVC
11:50 63.2 °F /  17.3 °C 53.3 °F /  11.8 °C 30.16in /  1021.2hPa NNE 9.2mph /  14.8km/h   70% 0.00in /  0mm 0.0 W/m2 OVC
11:52 63.2 °F /  17.3 °C 53.6 °F /  12 °C 30.16in /  1021.2hPa NNW 9.2mph /  14.8km/h 9.2mph /  14.8km/h 71% 0.00in /  0mm 0.0 W/m2 OVC
11:57 63.3 °F /  17.4 °C 53.7 °F /  12.1 °C 30.16in /  1021.2hPa West 9.2mph /  14.8km/h 9.2mph /  14.8km/h 71% 0.00in /  0mm 0.0 W/m2 OVC
12:02 63.3 °F /  17.4 °C 54.1 °F /  12.3 °C 30.16in /  1021.2hPa North 9.2mph /  14.8km/h 9.2mph /  14.8km/h 72% 0.00in /  0mm 0.0 W/m2 OVC
12:07 63.0 °F /  17.2 °C 54.2 °F /  12.3 °C 30.15in /  1020.9hPa South 9.2mph /  14.8km/h 9.2mph /  14.8km/h 73% 0.00in /  0mm 0.0 W/m2 OVC
12:12 63.0 °F /  17.2 °C 54.9 °F /  12.7 °C 30.14in /  1020.5hPa NW 9.2mph /  14.8km/h 9.2mph /  14.8km/h 75% 0.00in /  0mm 0.0 W/m2 OVC
12:17 62.9 °F /  17.2 °C 54.9 °F /  12.7 °C 30.14in /  1020.5hPa NNE 9.2mph /  14.8km/h   75% 0.00in /  0mm 0.0 W/m2 OVC
12:22 62.7 °F /  17.1 °C 54.7 °F /  12.6 °C 30.14in /  1020.5hPa NE 9.2mph /  14.8km/h 9.2mph /  14.8km/h 75% 0.00in /  0mm 0.0 W/m2 OVC
12:27 62.9 °F /  17.2 °C 54.1 °F /  12.3 °C 30.15in /  1020.9hPa NE 9.2mph /  14.8km/h 9.2mph /  14.8km/h 73% 0.00in /  0mm 0.0 W/m2 OVC
12:33 63.1 °F /  17.3 °C 54.3 °F /  12.4 °C 30.15in /  1020.9hPa NE 9.2mph /  14.8km/h 9.2mph /  14.8km/h 73% 0.00in /  0mm 0.0 W/m2 OVC
12:38 63.8 °F /  17.7 °C 54.6 °F /  12.6 °C 30.14in /  1020.5hPa WNW 9.2mph /  14.8km/h   72% 0.00in /  0mm 0.0 W/m2 OVC
12:43 64.4 °F /  18 °C 54.8 °F /  12.7 °C 30.14in /  1020.5hPa NW 9.2mph /  14.8km/h 9.2mph /  14.8km/h 71% 0.00in /  0mm 0.0 W/m2 OVC
12:48 64.3 °F /  17.9 °C 54.3 °F /  12.4 °C 30.13in /  1020.2hPa WNW 9.2mph /  14.8km/h 9.2mph /  14.8km/h 70% 0.00in /  0mm 0.0 W/m2 OVC
12:53 64.3 °F /  17.9 °C 53.5 °F /  11.9 °C 30.13in /  1020.2hPa SW 9.2mph /  14.8km/h 9.2mph /  14.8km/h 68% 0.00in /  0mm 0.0 W/m2 OVC
12:58 64.2 °F /  17.9 °C 53.8 °F /  12.1 °C 30.12in /  1019.9hPa WNW 9.2mph /  14.8km/h   69% 0.00in /  0mm 0.0 W/m2 OVC
13:03 64.4 °F /  18 °C 53.2 °F /  11.8 °C 30.12in /  1019.9hPa WNW 9.2mph /  14.8km/h 9.2mph /  14.8km/h 67% 0.00in /  0mm 0.0 W/m2 OVC
13:08 64.2 °F /  17.9 °C 50.9 °F /  10.5 °C 30.12in /  1019.9hPa East 9.2mph /  14.8km/h 9.2mph /  14.8km/h 62% 0.00in /  0mm 0.0 W/m2 OVC
13:13 64.3 °F /  17.9 °C 51.9 °F /  11.1 °C 30.12in /  1019.9hPa NNE 9.2mph /  14.8km/h   64% 0.00in /  0mm 0.0 W/m2 OVC
13:18 64.9 °F /  18.3 °C 52.4 °F /  11.3 °C 30.12in /  1019.9hPa East 9.2mph /  14.8km/h 9.2mph /  14.8km/h 64% 0.00in /  0mm 0.0 W/m2 OVC
13:23 64.9 °F /  18.3 °C 52.0 °F /  11.1 °C 30.12in /  1019.9hPa SE 9.2mph /  14.8km/h   63% 0.00in /  0mm 0.0 W/m2 OVC
13:29 65.4 °F /  18.6 °C 52.9 °F /  11.6 °C 30.12in /  1019.9hPa North 9.2mph /  14.8km/h 9.2mph /  14.8km/h 64% 0.00in /  0mm 0.0 W/m2 OVC
13:34 66.4 °F /  19.1 °C 52.1 °F /  11.2 °C 30.11in /  1019.5hPa SSW 9.2mph /  14.8km/h 9.2mph /  14.8km/h 60% 0.00in /  0mm 0.0 W/m2 OVC
13:39 66.3 °F /  19.1 °C 51.5 °F /  10.8 °C 30.11in /  1019.5hPa SE 9.2mph /  14.8km/h 9.2mph /  14.8km/h 59% 0.00in /  0mm 0.0 W/m2 OVC
13:44 66.3 °F /  19.1 °C 52.0 °F /  11.1 °C 30.10in /  1019.2hPa SSW 9.2mph /  14.8km/h 9.2mph /  14.8km/h 60% 0.00in /  0mm 0.0 W/m2 OVC
13:49 66.4 °F /  19.1 °C 51.6 °F /  10.9 °C 30.10in /  1019.2hPa North 9.2mph /  14.8km/h 9.2mph /  14.8km/h 59% 0.00in /  0mm 0.0 W/m2 OVC
13:54 66.6 °F /  19.2 °C 50.9 °F /  10.5 °C 30.10in /  1019.2hPa NNE 9.2mph /  14.8km/h 9.2mph /  14.8km/h 57% 0.00in /  0mm 0.0 W/m2 OVC
13:59 66.6 °F /  19.2 °C 50.9 °F /  10.5 °C 30.10in /  1019.2hPa ESE 9.2mph /  14.8km/h 9.2mph /  14.8km/h 57% 0.00in /  0mm 0.0 W/m2 OVC
14:04 66.0 °F /  18.9 °C 51.7 °F /  10.9 °C 30.09in /  1018.8hPa ESE 9.2mph /  14.8km/h   60% 0.00in /  0mm 0.0 W/m2 OVC
14:09 66.6 °F /  19.2 °C 51.8 °F /  11 °C 30.09in /  1018.8hPa ESE 9.2mph /  14.8km/h 9.2mph /  14.8km/h 59% 0.00in /  0mm 0.0 W/m2 OVC
14:14 66.8 °F /  19.3 °C 51.1 °F /  10.6 °C 30.09in /  1018.8hPa SSE 9.2mph /  14.8km/h 9.2mph /  14.8km/h 57% 0.00in /  0mm 0.0 W/m2 OVC
14:20 67.0 °F /  19.4 °C 51.7 °F /  10.9 °C 30.09in /  1018.8hPa NW 9.2mph /  14.8km/h   58% 0.00in /  0mm 0.0 W/m2 OVC
14:25 67.4 °F /  19.7 °C 50.7 °F /  10.4 °C 30.09in /  1018.8hPa East 9.2mph /  14.8km/h 9.2mph /  14.8km/h 55% 0.00in /  0mm 0.0 W/m2 OVC
14:30 67.2 °F /  19.6 °C 51.0 °F /  10.6 °C 30.09in /  1018.8hPa ESE 9.2mph /  14.8km/h 9.2mph /  14.8km/h 56% 0.00in /  0mm 0.0 W/m2 OVC
14:35 67.3 °F /  19.6 °C 51.1 °F /  10.6 °C 30.09in /  1018.8hPa NNW 9.2mph /  14.8km/h 9.2mph /  14.8km/h 56% 0.00in /  0mm 0.0 W/m2 OVC
14:40 67.3 °F /  19.6 °C 50.6 °F /  10.3 °C 30.09in /  1018.8hPa East 9.2mph /  14.8km/h 9.2mph /  14.8km/h 55% 0.00in /  0mm 0.0 W/m2 OVC
14:45 67.5 °F /  19.7 °C 50.8 °F /  10.4 °C 30.09in /  1018.8hPa NE 9.2mph /  14.8km/h   55% 0.00in /  0mm 0.0 W/m2 OVC
14:50 67.8 °F /  19.9 °C 51.0 °F /  10.6 °C 30.09in /  1018.8hPa SSE 9.2mph /  14.8km/h 9.2mph /  14.8km/h 55% 0.00in /  0mm 0.0 W/m2 OVC
14:55 67.7 °F /  19.8 °C 50.5 °F /  10.3 °C 30.09in /  1018.8hPa NNW 9.2mph /  14.8km/h   54% 0.00in /  0mm 0.0 W/m2 OVC
15:00 67.8 °F /  19.9 °C 51.0 °F /  10.6 °C 30.09in /  1018.8hPa NNW 9.2mph /  14.8km/h 9.2mph /  14.8km/h 55% 0.00in /  0mm 0.0 W/m2 OVC
15:05 67.9 °F /  19.9 °C 50.6 °F /  10.3 °C 30.09in /  1018.8hPa NNW 9.2mph /  14.8km/h 9.2mph /  14.8km/h 54% 0.00in /  0mm 0.0 W/m2 OVC
15:10 67.9 °F /  19.9 °C 50.6 °F /  10.3 °C 30.09in /  1018.8hPa SE 9.2mph /  14.8km/h 9.2mph /  14.8km/h 54% 0.00in /  0mm 0.0 W/m2 OVC
15:16 67.9 °F /  19.9 °C 51.1 °F /  10.6 °C 30.09in /  1018.8hPa WNW 9.2mph /  14.8km/h 9.2mph /  14.8km/h 55% 0.00in /  0mm 0.0 W/m2 OVC
15:21 67.9 °F /  19.9 °C 51.1 °F /  10.6 °C 30.09in /  1018.8hPa WSW 9.2mph /  14.8km/h 9.2mph /  14.8km/h 55% 0.00in /  0mm 0.0 W/m2 OVC
15:26 67.9 °F /  19.9 °C 50.6 °F /  10.3 °C 30.09in /  1018.8hPa SW 9.2mph /  14.8km/h 9.2mph /  14.8km/h 54% 0.00in /  0mm 0.0 W/m2 OVC
15:31 67.9 °F /  19.9 °C 50.6 °F /  10.3 °C 30.09in /  1018.8hPa North 9.2mph /  14.8km/h 9.2mph /  14.8km/h 54% 0.00in /  0mm 0.0 W/m2 OVC
15:36 67.9 °F /  19.9 °C 51.1 °F /  10.6 °C 30.09in /  1018.8hPa WSW 9.2mph /  14.8km/h 9.2mph /  14.8km/h 55% 0.00in /  0mm 0.0 W/m2 OVC
15:41 67.8 °F /  19.9 °C 51.0 °F /  10.6 °C 30.08in /  1018.5hPa WNW 9.2mph /  14.8km/h   55% 0.00in /  0mm 0.0 W/m2 OVC
15:46 68.2 °F /  20.1 °C 50.9 °F /  10.5 °C 30.08in /  1018.5hPa NNW 9.2mph /  14.8km/h 9.2mph /  14.8km/h 54% 0.00in /  0mm 0.0 W/m2 OVC
15:51 68.6 °F /  20.3 °C 50.8 °F /  10.4 °C 30.08in /  1018.5hPa North 9.2mph /  14.8km/h 9.2mph /  14.8km/h 53% 0.00in /  0mm 0.0 W/m2 OVC
15:56 68.7 °F /  20.4 °C 50.4 °F /  10.2 °C 30.09in /  1018.8hPa NE 9.2mph /  14.8km/h 9.2mph /  14.8km/h 52% 0.00in /  0mm 0.0 W/m2 OVC
16:02 68.4 °F /  20.2 °C 50.6 °F /  10.3 °C 30.09in /  1018.8hPa WNW 9.2mph /  14.8km/h 9.2mph /  14.8km/h 53% 0.00in /  0mm 0.0 W/m2 CLR
16:07 68.2 °F /  20.1 °C 50.4 °F /  10.2 °C 30.09in /  1018.8hPa ESE 9.2mph /  14.8km/h 9.2mph /  14.8km/h 53% 0.00in /  0mm 0.0 W/m2 CLR
16:12 68.1 °F /  20.1 °C 51.3 °F /  10.7 °C 30.08in /  1018.5hPa NNE 9.2mph /  14.8km/h   55% 0.00in /  0mm 0.0 W/m2 CLR
16:17 67.9 °F /  19.9 °C 50.6 °F /  10.3 °C 30.09in /  1018.8hPa East 9.2mph /  14.8km/h 9.2mph /  14.8km/h 54% 0.00in /  0mm 0.0 W/m2 CLR
16:22 67.7 °F /  19.8 °C 50.9 °F /  10.5 °C 30.09in /  1018.8hPa West 9.2mph /  14.8km/h   55% 0.00in /  0mm 0.0 W/m2 CLR
16:27 67.6 °F /  19.8 °C 50.9 °F /  10.5 °C 30.08in /  1018.5hPa North 9.2mph /  14.8km/h   55% 0.00in /  0mm 0.0 W/m2 CLR
16:32 67.4 °F /  19.7 °C 51.2 °F /  10.7 °C 30.08in /  1018.5hPa WNW 9.2mph /  14.8km/h   56% 0.00in /  0mm 0.0 W/m2 CLR
16:37 67.1 °F /  19.5 °C 51.4 °F /  10.8 °C 30.08in /  1018.5hPa West 9.2mph /  14.8km/h 9.2mph /  14.8km/h 57% 0.00in /  0mm 0.0 W/m2 CLR
16:42 66.9 °F /  19.4 °C 50.7 °F /  10.4 °C 30.09in /  1018.8hPa West 9.2mph /  14.8km/h   56% 0.00in /  0mm 0.0 W/m2 CLR
16:47 66.9 °F /  19.4 °C 50.7 °F /  10.4 °C 30.09in /  1018.8hPa NNE 9.2mph /  14.8km/h 9.2mph /  14.8km/h 56% 0.00in /  0mm 0.0 W/m2 CLR
16:53 66.9 °F /  19.4 °C 50.7 °F /  10.4 °C 30.09in /  1018.8hPa West 9.2mph /  14.8km/h   56% 0.00in /  0mm 0.0 W/m2 CLR
16:58 66.8 °F /  19.3 °C 51.1 °F /  10.6 °C 30.08in /  1018.5hPa WNW 9.2mph /  14.8km/h   57% 0.00in /  0mm 0.0 W/m2 CLR
17:03 66.5 °F /  19.2 °C 50.8 °F /  10.4 °C 30.08in /  1018.5hPa NNW 9.2mph /  14.8km/h 9.2mph /  14.8km/h 57% 0.00in /  0mm 0.0 W/m2 CLR
17:08 66.2 °F /  19 °C 51.0 °F /  10.6 °C 30.08in /  1018.5hPa NNW 9.2mph /  14.8km/h   58% 0.00in /  0mm 0.0 W/m2 CLR
17:13 66.0 °F /  18.9 °C 50.8 °F /  10.4 °C 30.08in /  1018.5hPa West 9.2mph /  14.8km/h 9.2mph /  14.8km/h 58% 0.00in /  0mm 0.0 W/m2 CLR
17:18 65.8 °F /  18.8 °C 51.1 °F /  10.6 °C 30.08in /  1018.5hPa NNW 9.2mph /  14.8km/h   59% 0.00in /  0mm 0.0 W/m2 CLR
17:23 65.6 °F /  18.7 °C 50.9 °F /  10.5 °C 30.08in /  1018.5hPa NNW 9.2mph /  14.8km/h   59% 0.00in /  0mm 0.0 W/m2 CLR
17:28 65.3 °F /  18.5 °C 51.1 °F /  10.6 °C 30.08in /  1018.5hPa NNW 9.2mph /  14.8km/h   60% 0.00in /  0mm 0.0 W/m2 CLR
17:33 65.0 °F /  18.3 °C 50.8 °F /  10.4 °C 30.08in /  1018.5hPa NNW 9.2mph /  14.8km/h   60% 0.00in /  0mm 0.0 W/m2 CLR
17:38 64.7 °F /  18.2 °C 50.9 °F /  10.5 °C 30.09in /  1018.8hPa NNW 9.2mph /  14.8km/h   61% 0.00in /  0mm 0.0 W/m2 CLR
17:43 64.3 °F /  17.9 °C 51.0 °F /  10.6 °C 30.09in /  1018.8hPa NNW 9.2mph /  14.8km/h   62% 0.00in /  0mm 0.0 W/m2 CLR
17:49 64.0 °F /  17.8 °C 50.7 °F /  10.4 °C 30.08in /  1018.5hPa NNW 9.2mph /  14.8km/h   62% 0.00in /  0mm 0.0 W/m2 CLR
17:54 63.7 °F /  17.6 °C 50.9 °F /  10.5 °C 30.09in /  1018.8hPa NNW 9.2mph /  14.8km/h   63% 0.00in /  0mm 0.0 W/m2 CLR
17:59 63.3 °F /  17.4 °C 50.5 °F /  10.3 °C 30.09in /  1018.8hPa NNW 9.2mph /  14.8km/h   63% 0.00in /  0mm 0.0 W/m2 CLR
18:04 63.0 °F /  17.2 °C 50.6 °F /  10.3 °C 30.09in /  1018.8hPa NNW 9.2mph /  14.8km/h   64% 0.00in /  0mm 0.0 W/m2
18:09 62.6 °F /  17 °C 50.7 °F /  10.4 °C 30.08in /  1018.5hPa NNW 9.2mph /  14.8km/h   65% 0.00in /  0mm 0.0 W/m2
18:14 62.2 °F /  16.8 °C 50.7 °F /  10.4 °C 30.09in /  1018.8hPa NNW 9.2mph /  14.8km/h   66% 0.00in /  0mm 0.0 W/m2
18:19 61.8 °F /  16.6 °C 50.7 °F /  10.4 °C 30.09in /  1018.8hPa NNW 9.2mph /  14.8km/h   67% 0.00in /  0mm 0.0 W/m2
18:24 61.5 °F /  16.4 °C 50.4 °F /  10.2 °C 30.09in /  1018.8hPa NNW 9.2mph /  14.8km/h   67% 0.00in /  0mm 0.0 W/m2
18:29 61.2 °F /  16.2 °C 50.6 °F /  10.3 °C 30.09in /  1018.8hPa NNW 9.2mph /  14.8km/h   68% 0.00in /  0mm 0.0 W/m2
18:35 61.0 °F /  16.1 °C 50.4 °F /  10.2 °C 30.10in /  1019.2hPa NNW 9.2mph /  14.8km/h   68% 0.00in /  0mm 0.0 W/m2
18:40 60.7 °F /  15.9 °C 50.5 °F /  10.3 °C 30.10in /  1019.2hPa NNW 9.2mph /  14.8km/h   69% 0.00in /  0mm 0.0 W/m2
18:45 60.4 °F /  15.8 °C 50.2 °F /  10.1 °C 30.10in /  1019.2hPa NNW 9.2mph /  14.8km/h   69% 0.00in /  0mm 0.0 W/m2
18:50 60.1 °F /  15.6 °C 50.3 °F /  10.2 °C 30.10in /  1019.2hPa NNW 9.2mph /  14.8km/h   70% 0.00in /  0mm 0.0 W/m2
18:55 60.0 °F /  15.6 °C 50.2 °F /  10.1 °C 30.10in /  1019.2hPa NNW 9.2mph /  14.8km/h   70% 0.00in /  0mm 0.0 W/m2
19:00 59.7 °F /  15.4 °C 49.9 °F /  9.9 °C 30.10in /  1019.2hPa NNW 9.2mph /  14.8km/h   70% 0.00in /  0mm 0.0 W/m2
19:05 59.4 °F /  15.2 °C 50.4 °F /  10.2 °C 30.11in /  1019.5hPa NNW 9.2mph /  14.8km/h   72% 0.00in /  0mm 0.0 W/m2
19:10 59.2 °F /  15.1 °C 50.2 °F /  10.1 °C 30.11in /  1019.5hPa NNW 9.2mph /  14.8km/h   72% 0.00in /  0mm 0.0 W/m2
19:15 58.9 °F /  14.9 °C 50.3 °F /  10.2 °C 30.11in /  1019.5hPa NNW 9.2mph /  14.8km/h   73% 0.00in /  0mm 0.0 W/m2
19:20 58.6 °F /  14.8 °C 50.0 °F /  10 °C 30.12in /  1019.9hPa NNW 9.2mph /  14.8km/h   73% 0.00in /  0mm 0.0 W/m2
19:26 58.5 °F /  14.7 °C 50.2 °F /  10.1 °C 30.12in /  1019.9hPa NNW 9.2mph /  14.8km/h   74% 0.00in /  0mm 0.0 W/m2
19:31 58.4 °F /  14.7 °C 50.1 °F /  10.1 °C 30.12in /  1019.9hPa NNW 9.2mph /  14.8km/h   74% 0.00in /  0mm 0.0 W/m2
19:36 58.2 °F /  14.6 °C 50.3 °F /  10.2 °C 30.11in /  1019.5hPa NNW 9.2mph /  14.8km/h   75% 0.00in /  0mm 0.0 W/m2
19:41 58.2 °F /  14.6 °C 50.3 °F /  10.2 °C 30.11in /  1019.5hPa NNE 9.2mph /  14.8km/h   75% 0.00in /  0mm 0.0 W/m2
19:46 58.2 °F /  14.6 °C 50.0 °F /  10 °C 30.11in /  1019.5hPa North 9.2mph /  14.8km/h   74% 0.00in /  0mm 0.0 W/m2
19:51 58.1 °F /  14.5 °C 50.2 °F /  10.1 °C 30.11in /  1019.5hPa NNE 9.2mph /  14.8km/h   75% 0.00in /  0mm 0.0 W/m2
19:56 57.9 °F /  14.4 °C 50.0 °F /  10 °C 30.11in /  1019.5hPa NNE 9.2mph /  14.8km/h   75% 0.00in /  0mm 0.0 W/m2
20:01 57.6 °F /  14.2 °C 50.1 °F /  10.1 °C 30.11in /  1019.5hPa North 9.2mph /  14.8km/h   76% 0.00in /  0mm 0.0 W/m2
20:06 57.5 °F /  14.2 °C 50.0 °F /  10 °C 30.11in /  1019.5hPa NNE 9.2mph /  14.8km/h   76% 0.00in /  0mm 0.0 W/m2
20:12 57.6 °F /  14.2 °C 50.1 °F /  10.1 °C 30.12in /  1019.9hPa NNE 9.2mph /  14.8km/h   76% 0.00in /  0mm 0.0 W/m2
20:17 57.6 °F /  14.2 °C 50.1 °F /  10.1 °C 30.12in /  1019.9hPa NNE 9.2mph /  14.8km/h   76% 0.00in /  0mm 0.0 W/m2
20:22 57.4 °F /  14.1 °C 49.9 °F /  9.9 °C 30.12in /  1019.9hPa NNE 9.2mph /  14.8km/h   76% 0.00in /  0mm 0.0 W/m2
20:27 57.3 °F /  14.1 °C 49.8 °F /  9.9 °C 30.11in /  1019.5hPa NNE 9.2mph /  14.8km/h   76% 0.00in /  0mm 0.0 W/m2
20:32 57.1 °F /  13.9 °C 50.0 °F /  10 °C 30.11in /  1019.5hPa NNE 9.2mph /  14.8km/h   77% 0.00in /  0mm 0.0 W/m2
20:37 57.0 °F /  13.9 °C 49.9 °F /  9.9 °C 30.11in /  1019.5hPa NNE 9.2mph /  14.8km/h   77% 0.00in /  0mm 0.0 W/m2
20:42 56.9 °F /  13.8 °C 49.8 °F /  9.9 °C 30.11in /  1019.5hPa North 9.2mph /  14.8km/h   77% 0.00in /  0mm 0.0 W/m2
20:47 56.9 °F /  13.8 °C 50.1 °F /  10.1 °C 30.12in /  1019.9hPa NNE 9.2mph /  14.8km/h   78% 0.00in /  0mm 0.0 W/m2
20:52 56.8 °F /  13.8 °C 50.0 °F /  10 °C 30.11in /  1019.5hPa North 9.2mph /  14.8km/h   78% 0.00in /  0mm 0.0 W/m2
20:57 56.8 °F /  13.8 °C 50.0 °F /  10 °C 30.11in /  1019.5hPa NNE 9.2mph /  14.8km/h   78% 0.00in /  0mm 0.0 W/m2
21:02 56.6 °F /  13.7 °C 49.8 °F /  9.9 °C 30.11in /  1019.5hPa NNE 9.2mph /  14.8km/h   78% 0.00in /  0mm 0.0 W/m2
21:08 56.5 °F /  13.6 °C 49.7 °F /  9.8 °C 30.11in /  1019.5hPa NNE 9.2mph /  14.8km/h   78% 0.00in /  0mm 0.0 W/m2
21:13 56.5 °F /  13.6 °C 50.1 °F /  10.1 °C 30.11in /  1019.5hPa NNE 9.2mph /  14.8km/h   79% 0.00in /  0mm 0.0 W/m2
21:18 56.3 °F /  13.5 °C 49.9 °F /  9.9 °C 30.11in /  1019.5hPa NNE 9.2mph /  14.8km/h   79% 0.00in /  0mm 0.0 W/m2
21:23 56.2 °F /  13.4 °C 49.8 °F /  9.9 °C 30.12in /  1019.9hPa NNE 9.2mph /  14.8km/h   79% 0.00in /  0mm 0.0 W/m2
21:28 56.1 °F /  13.4 °C 50.0 °F /  10 °C 30.11in /  1019.5hPa NNE 9.2mph /  14.8km/h   80% 0.00in /  0mm 0.0 W/m2
21:33 56.0 °F /  13.3 °C 49.9 °F /  9.9 °C 30.11in /  1019.5hPa NNE 9.2mph /  14.8km/h   80% 0.00in /  0mm 0.0 W/m2
21:38 56.0 °F /  13.3 °C 49.9 °F /  9.9 °C 30.11in /  1019.5hPa NNE 9.2mph /  14.8km/h   80% 0.00in /  0mm 0.0 W/m2
21:43 56.0 °F /  13.3 °C 49.9 °F /  9.9 °C 30.11in /  1019.5hPa NNE 9.2mph /  14.8km/h   80% 0.00in /  0mm 0.0 W/m2
21:48 56.0 °F /  13.3 °C 50.3 °F /  10.2 °C 30.11in /  1019.5hPa NNE 9.2mph /  14.8km/h   81% 0.00in /  0mm 0.0 W/m2
21:53 56.1 °F /  13.4 °C 50.0 °F /  10 °C 30.11in /  1019.5hPa NNE 9.2mph /  14.8km/h   80% 0.00in /  0mm 0.0 W/m2
22:01 56.0 °F /  13.3 °C 50.3 °F /  10.2 °C 30.11in /  1019.5hPa NNE 9.2mph /  14.8km/h   81% 0.00in /  0mm 0.0 W/m2
22:06 56.0 °F /  13.3 °C 50.3 °F /  10.2 °C 30.11in /  1019.5hPa NNE 9.2mph /  14.8km/h   81% 0.00in /  0mm 0.0 W/m2
22:11 56.0 °F /  13.3 °C 50.3 °F /  10.2 °C 30.11in /  1019.5hPa NNE 9.2mph /  14.8km/h   81% 0.00in /  0mm 0.0 W/m2
22:16 55.9 °F /  13.3 °C 50.2 °F /  10.1 °C 30.12in /  1019.9hPa NNE 9.2mph /  14.8km/h   81% 0.00in /  0mm 0.0 W/m2
22:21 55.8 °F /  13.2 °C 50.1 °F /  10.1 °C 30.11in /  1019.5hPa North 9.2mph /  14.8km/h   81% 0.00in /  0mm 0.0 W/m2
22:26 55.7 °F /  13.2 °C 50.0 °F /  10 °C 30.11in /  1019.5hPa NNE 9.2mph /  14.8km/h   81% 0.00in /  0mm 0.0 W/m2
22:31 55.5 °F /  13.1 °C 50.1 °F /  10.1 °C 30.11in /  1019.5hPa NNE 9.2mph /  14.8km/h   82% 0.00in /  0mm 0.0 W/m2
22:36 55.5 °F /  13.1 °C 50.1 °F /  10.1 °C 30.11in /  1019.5hPa NNE 9.2mph /  14.8km/h   82% 0.00in /  0mm 0.0 W/m2
22:41 55.4 °F /  13 °C 50.0 °F /  10 °C 30.11in /  1019.5hPa NNE 9.2mph /  14.8km/h   82% 0.00in /  0mm 0.0 W/m2
22:46 55.3 °F /  12.9 °C 49.9 °F /  9.9 °C 30.11in /  1019.5hPa NNE 9.2mph /  14.8km/h   82% 0.00in /  0mm 0.0 W/m2
22:52 55.2 °F /  12.9 °C 50.1 °F /  10.1 °C 30.11in /  1019.5hPa North 9.2mph /  14.8km/h   83% 0.00in /  0mm 0.0 W/m2
22:57 55.1 °F /  12.8 °C 50.0 °F /  10 °C 30.11in /  1019.5hPa NNE 9.2mph /  14.8km/h   83% 0.00in /  0mm 0.0 W/m2
23:02 55.0 °F /  12.8 °C 49.9 °F /  9.9 °C 30.11in /  1019.5hPa NNE 9.2mph /  14.8km/h   83% 0.00in /  0mm 0.0 W/m2
23:07 54.9 °F /  12.7 °C 49.8 °F /  9.9 °C 30.11in /  1019.5hPa NNE 9.2mph /  14.8km/h   83% 0.00in /  0mm 0.0 W/m2
23:12 54.9 °F /  12.7 °C 49.8 °F /  9.9 °C 30.11in /  1019.5hPa North 9.2mph /  14.8km/h   83% 0.00in /  0mm 0.0 W/m2
23:17 54.9 °F /  12.7 °C 49.8 °F /  9.9 °C 30.12in /  1019.9hPa NNE 9.2mph /  14.8km/h   83% 0.00in /  0mm 0.0 W/m2
23:22 54.8 °F /  12.7 °C 49.7 °F /  9.8 °C 30.12in /  1019.9hPa North 9.2mph /  14.8km/h   83% 0.00in /  0mm 0.0 W/m2
23:27 54.6 °F /  12.6 °C 49.5 °F /  9.7 °C 30.11in /  1019.5hPa NNE 9.2mph /  14.8km/h   83% 0.00in /  0mm 0.0 W/m2
23:32 54.4 °F /  12.4 °C 49.3 °F /  9.6 °C 30.12in /  1019.9hPa NNE 9.2mph /  14.8km/h   83% 0.00in /  0mm 0.0 W/m2
23:37 54.2 °F /  12.3 °C 49.5 °F /  9.7 °C 30.12in /  1019.9hPa NNE 9.2mph /  14.8km/h   84% 0.00in /  0mm 0.0 W/m2
23:43 54.1 °F /  12.3 °C 49.4 °F /  9.7 °C 30.12in /  1019.9hPa NNE 9.2mph /  14.8km/h   84% 0.00in /  0mm 0.0 W/m2
23:48 54.1 °F /  12.3 °C 49.4 °F /  9.7 °C 30.11in /  1019.5hPa NNE 9.2mph /  14.8km/h   84% 0.00in /  0mm 0.0 W/m2
23:53 54.0 °F /  12.2 °C 49.3 °F /  9.6 °C 30.11in /  1019.5hPa NNE 9.2mph /  14.8km/h   84% 0.00in /  0mm 0.0 W/m2
23:58 54.0 °F /  12.2 °C 49.6 °F /  9.8 °C 30.11in /  1019.5hPa NNE 9.2mph /  14.8km/h   85% 0.00in /  0mm 0.0 W/m2
Piedmont Bend
Compliments of Weather Underground - 4 mb